Time;durP1;ratioP1;P1;durP2;ratioP2;P2;SDS_P1;SDS_P2;PMS_P1;PMS_P2;Temp;Humidity;BMP_temperature;BMP_pressure;BME280_temperature;BME280_humidity;BME280_pressure;Samples;Min_cycle;Max_cycle;Signal;HPM_P1;HPM_P2
2021/12/27 00:00:49;;;;;;;50.17;28.20;;;2.50;99.90;;;;;;5062597;28;20668;-53
2021/12/27 00:03:19;;;;;;;47.33;26.50;;;2.50;99.90;;;;;;5063867;28;20209;-54
2021/12/27 00:05:47;;;;;;;51.00;26.37;;;2.60;99.90;;;;;;5060828;28;20274;-53
2021/12/27 00:08:15;;;;;;;46.03;25.57;;;2.60;99.90;;;;;;5061259;28;20202;-52
2021/12/27 00:10:43;;;;;;;55.00;28.90;;;2.70;99.90;;;;;;5060298;28;20206;-54
2021/12/27 00:13:11;;;;;;;52.20;28.63;;;2.70;99.90;;;;;;5062301;28;20696;-54
2021/12/27 00:15:42;;;;;;;53.17;28.20;;;2.70;99.90;;;;;;5066980;28;20220;-53
2021/12/27 00:18:10;;;;;;;44.13;26.13;;;2.70;99.90;;;;;;5062386;28;20232;-52
2021/12/27 00:20:39;;;;;;;43.80;25.17;;;2.70;99.90;;;;;;5060054;28;20201;-54
2021/12/27 00:23:07;;;;;;;44.80;26.87;;;2.70;99.90;;;;;;5061713;28;20234;-53
2021/12/27 00:25:35;;;;;;;46.83;26.90;;;2.70;99.90;;;;;;5062363;28;20221;-53
2021/12/27 00:28:04;;;;;;;44.60;25.73;;;2.70;99.90;;;;;;5062975;28;20204;-53
2021/12/27 00:30:32;;;;;;;44.90;24.93;;;2.80;99.90;;;;;;5062220;28;20686;-54
2021/12/27 00:33:00;;;;;;;43.47;24.47;;;2.80;99.90;;;;;;5061137;28;20229;-54
2021/12/27 00:35:32;;;;;;;39.93;24.10;;;2.80;99.90;;;;;;5061402;28;20263;-53
2021/12/27 00:38:01;;;;;;;40.30;23.57;;;2.80;99.90;;;;;;5062240;28;20250;-54
2021/12/27 00:40:29;;;;;;;46.93;26.07;;;2.80;99.90;;;;;;5066014;28;20938;-54
2021/12/27 00:42:57;;;;;;;50.30;25.70;;;2.80;99.90;;;;;;5060019;28;20204;-55
2021/12/27 00:45:26;;;;;;;47.73;25.63;;;2.80;99.90;;;;;;5061201;28;20216;-54
2021/12/27 00:47:54;;;;;;;47.17;25.63;;;2.80;99.90;;;;;;5062073;28;20205;-53
2021/12/27 00:50:22;;;;;;;53.20;28.80;;;2.80;99.90;;;;;;5062267;28;20231;-54
2021/12/27 00:52:50;;;;;;;49.20;27.33;;;2.70;99.90;;;;;;5065000;28;20228;-53
2021/12/27 00:55:20;;;;;;;49.53;26.67;;;2.70;99.90;;;;;;5062493;28;20607;-52
2021/12/27 00:57:49;;;;;;;51.70;26.77;;;2.70;99.90;;;;;;5059456;28;20209;-53
2021/12/27 01:00:21;;;;;;;48.70;26.93;;;2.70;99.90;;;;;;5060336;28;20217;-54
2021/12/27 01:02:50;;;;;;;49.87;26.53;;;2.80;99.90;;;;;;5059457;28;20198;-55
2021/12/27 01:05:18;;;;;;;51.43;26.87;;;2.80;99.90;;;;;;5059684;28;20221;-53
2021/12/27 01:07:47;;;;;;;49.93;27.10;;;2.80;99.90;;;;;;5059610;28;20265;-55
2021/12/27 01:10:40;;;;;;;46.40;26.50;;;2.90;99.90;;;;;;5061272;28;20198;-54
2021/12/27 01:13:21;;;;;;;46.67;27.00;;;2.90;99.90;;;;;;5059364;28;20589;-54
2021/12/27 01:16:02;;;;;;;44.33;25.47;;;2.90;99.90;;;;;;5061345;28;20226;-54
2021/12/27 01:18:30;;;;;;;48.17;25.40;;;2.90;99.90;;;;;;5059314;28;20209;-53
2021/12/27 01:20:58;;;;;;;48.90;25.33;;;2.90;99.90;;;;;;5061010;28;20212;-55
2021/12/27 01:23:27;;;;;;;47.23;25.80;;;2.90;99.90;;;;;;5061642;28;20202;-55
2021/12/27 01:25:55;;;;;;;47.53;26.13;;;2.90;99.90;;;;;;5059107;28;20228;-54
2021/12/27 01:28:25;;;;;;;45.00;26.13;;;2.90;99.90;;;;;;5063999;28;20913;-55
2021/12/27 01:30:54;;;;;;;64.33;33.70;;;2.90;99.90;;;;;;5063359;28;20201;-54
2021/12/27 01:33:24;;;;;;;54.13;30.87;;;3.00;99.90;;;;;;5062441;28;20228;-53
2021/12/27 01:35:54;;;;;;;67.33;35.33;;;3.00;99.90;;;;;;5061694;28;20225;-55
2021/12/27 01:38:22;;;;;;;53.43;29.10;;;3.00;99.90;;;;;;5063472;28;20573;-54
2021/12/27 01:40:53;;;;;;;50.83;27.27;;;3.00;99.90;;;;;;5060534;28;20257;-53
2021/12/27 01:43:25;;;;;;;120.57;54.50;;;3.00;99.90;;;;;;5060063;28;20197;-55
2021/12/27 01:45:55;;;;;;;93.67;45.10;;;3.10;99.90;;;;;;5061550;28;20710;-54
2021/12/27 01:48:27;;;;;;;104.60;47.93;;;3.10;99.90;;;;;;5058782;28;20296;-55
2021/12/27 01:50:57;;;;;;;107.50;48.97;;;3.00;99.90;;;;;;5050110;28;20202;-53
2021/12/27 01:53:27;;;;;;;68.60;36.70;;;3.00;99.90;;;;;;5055384;28;20249;-54
2021/12/27 01:55:56;;;;;;;50.30;28.63;;;3.00;99.90;;;;;;5051482;28;20220;-53
2021/12/27 01:58:26;;;;;;;47.07;27.33;;;3.00;99.90;;;;;;5060220;28;20202;-55
2021/12/27 02:00:57;;;;;;;45.90;26.20;;;3.00;99.90;;;;;;5071025;28;20209;-53
2021/12/27 02:03:27;;;;;;;43.87;25.43;;;3.00;99.90;;;;;;5071259;28;20196;-54
2021/12/27 02:05:56;;;;;;;51.37;27.77;;;3.00;99.90;;;;;;5070340;28;20221;-55
2021/12/27 02:08:25;;;;;;;43.37;25.27;;;3.10;99.90;;;;;;5070835;28;20205;-54
2021/12/27 02:10:54;;;;;;;56.43;28.30;;;3.10;99.90;;;;;;5070894;28;20208;-54
2021/12/27 02:13:23;;;;;;;45.43;25.67;;;3.10;99.90;;;;;;5070143;28;20229;-54
2021/12/27 02:15:53;;;;;;;45.43;25.60;;;3.10;99.90;;;;;;5070616;28;20772;-54
2021/12/27 02:18:21;;;;;;;42.17;25.43;;;3.00;99.90;;;;;;5064853;28;20219;-54
2021/12/27 02:20:50;;;;;;;44.53;27.23;;;3.00;99.90;;;;;;5051188;28;20211;-53
2021/12/27 02:23:19;;;;;;;40.40;24.33;;;3.00;99.90;;;;;;5054956;28;20206;-54
2021/12/27 02:25:52;;;;;;;47.40;26.70;;;3.00;99.90;;;;;;5062406;28;20254;-54
2021/12/27 02:28:21;;;;;;;46.03;25.60;;;3.00;99.90;;;;;;5072650;28;20211;-54
2021/12/27 02:30:52;;;;;;;51.40;28.43;;;3.10;99.90;;;;;;5073929;28;20254;-54
2021/12/27 02:33:20;;;;;;;47.30;26.97;;;3.10;99.90;;;;;;5074493;28;20263;-53
2021/12/27 02:35:51;;;;;;;41.87;25.93;;;3.00;99.90;;;;;;5073550;28;20246;-53
2021/12/27 02:38:21;;;;;;;42.07;25.93;;;3.00;99.90;;;;;;5074292;28;20201;-53
2021/12/27 02:40:51;;;;;;;39.77;23.73;;;3.10;99.90;;;;;;5074322;28;20258;-54
2021/12/27 02:43:21;;;;;;;39.63;23.63;;;3.10;99.90;;;;;;5073657;28;20550;-55
2021/12/27 02:45:51;;;;;;;41.60;24.63;;;3.10;99.90;;;;;;5057012;28;20264;-54
2021/12/27 02:48:26;;;;;;;43.07;25.30;;;3.10;99.90;;;;;;5070862;28;20205;-54
2021/12/27 02:50:56;;;;;;;38.60;23.57;;;3.10;99.90;;;;;;5073470;28;20190;-52
2021/12/27 02:53:25;;;;;;;38.97;24.43;;;3.10;99.90;;;;;;5073356;28;20728;-54
2021/12/27 02:55:56;;;;;;;41.23;24.53;;;3.10;99.90;;;;;;5073358;28;20267;-54
2021/12/27 02:58:26;;;;;;;42.23;24.57;;;3.20;99.90;;;;;;5073410;28;20205;-54
2021/12/27 03:00:58;;;;;;;33.77;21.20;;;3.20;99.90;;;;;;5054066;28;20206;-54
2021/12/27 03:03:26;;;;;;;40.77;23.87;;;3.20;99.90;;;;;;5054039;28;20263;-53
2021/12/27 03:05:56;;;;;;;41.37;24.97;;;3.20;99.90;;;;;;5053847;28;20229;-54
2021/12/27 03:08:28;;;;;;;38.50;23.40;;;3.20;99.90;;;;;;5072791;28;20205;-54
2021/12/27 03:10:58;;;;;;;39.23;25.30;;;3.20;99.90;;;;;;5074232;28;20189;-54
2021/12/27 03:13:28;;;;;;;39.57;23.50;;;3.20;99.90;;;;;;5053181;28;20228;-54
2021/12/27 03:15:58;;;;;;;44.10;25.67;;;3.20;99.90;;;;;;5053614;28;20706;-55
2021/12/27 03:18:26;;;;;;;43.23;25.07;;;3.20;99.90;;;;;;5053602;28;20219;-56
2021/12/27 03:20:56;;;;;;;36.43;22.97;;;3.20;99.90;;;;;;5053238;28;20278;-53
2021/12/27 03:23:25;;;;;;;41.17;24.47;;;3.20;99.90;;;;;;5073271;28;20209;-53
2021/12/27 03:25:54;;;;;;;44.47;25.33;;;3.20;99.90;;;;;;5063003;28;20648;-54
2021/12/27 03:28:23;;;;;;;43.93;24.90;;;3.20;99.90;;;;;;5068402;28;20256;-54
2021/12/27 03:30:51;;;;;;;44.13;24.97;;;3.20;99.90;;;;;;5073343;28;20251;-55
2021/12/27 03:33:23;;;;;;;45.33;24.87;;;3.20;99.90;;;;;;5072660;28;20309;-54
2021/12/27 03:36:00;;;;;;;47.93;26.70;;;3.20;99.90;;;;;;5073239;28;20230;-54
2021/12/27 03:38:32;;;;;;;49.33;26.17;;;3.20;99.90;;;;;;5053306;28;20684;-55
2021/12/27 03:41:00;;;;;;;40.67;24.17;;;3.20;99.90;;;;;;5059420;28;20271;-54
2021/12/27 03:43:28;;;;;;;44.13;25.03;;;3.20;99.90;;;;;;5072614;28;20231;-54
2021/12/27 03:45:57;;;;;;;46.70;25.13;;;3.20;99.90;;;;;;5072277;28;20224;-53
2021/12/27 03:48:25;;;;;;;42.40;24.57;;;3.20;99.90;;;;;;5073201;28;20197;-54
2021/12/27 03:50:53;;;;;;;52.30;27.13;;;3.20;99.90;;;;;;5072582;28;20222;-55
2021/12/27 03:53:21;;;;;;;52.33;26.90;;;3.20;99.90;;;;;;5072615;28;20231;-53
2021/12/27 03:55:51;;;;;;;40.60;24.83;;;3.20;99.90;;;;;;5072548;28;20746;-54
2021/12/27 03:58:28;;;;;;;55.50;27.80;;;3.20;99.90;;;;;;5072718;28;20259;-54
2021/12/27 04:01:14;;;;;;;42.47;24.00;;;3.20;99.90;;;;;;5074599;28;20191;-53
2021/12/27 04:03:44;;;;;;;47.13;23.90;;;3.20;99.90;;;;;;5066131;28;20244;-54
2021/12/27 04:06:13;;;;;;;46.37;24.80;;;3.20;99.90;;;;;;5055241;28;20237;-54
2021/12/27 04:08:41;;;;;;;45.33;24.97;;;3.20;99.90;;;;;;5072214;28;20204;-54
2021/12/27 04:11:11;;;;;;;41.70;24.90;;;3.20;99.90;;;;;;5073101;28;20273;-55
2021/12/27 04:13:39;;;;;;;49.13;25.20;;;3.20;99.90;;;;;;5071686;28;20716;-54
2021/12/27 04:16:08;;;;;;;60.83;30.73;;;3.10;99.90;;;;;;5072322;28;20286;-54
2021/12/27 04:18:36;;;;;;;61.93;31.60;;;3.10;99.90;;;;;;5072392;28;20208;-55
2021/12/27 04:21:04;;;;;;;67.20;34.37;;;3.20;99.90;;;;;;5072261;28;20255;-54
2021/12/27 04:23:32;;;;;;;57.37;30.53;;;3.20;99.90;;;;;;5072193;28;20207;-54
2021/12/27 04:26:00;;;;;;;59.43;33.33;;;3.20;99.90;;;;;;5071255;28;20243;-54
2021/12/27 04:28:30;;;;;;;60.17;33.07;;;3.20;99.90;;;;;;5071506;28;20261;-53
2021/12/27 04:30:58;;;;;;;55.30;29.90;;;3.20;99.90;;;;;;5072118;28;20538;-54
2021/12/27 04:33:26;;;;;;;47.43;25.57;;;3.30;99.90;;;;;;5071977;28;20629;-55
2021/12/27 04:35:54;;;;;;;42.80;24.47;;;3.30;99.90;;;;;;5071830;28;20272;-54
2021/12/27 04:38:22;;;;;;;42.00;24.50;;;3.30;99.90;;;;;;5071421;28;20249;-54
2021/12/27 04:40:52;;;;;;;43.83;25.90;;;3.30;99.90;;;;;;5072256;28;20269;-54
2021/12/27 04:43:22;;;;;;;40.03;23.40;;;3.30;99.90;;;;;;5071565;28;20235;-54
2021/12/27 04:45:53;;;;;;;43.23;25.20;;;3.30;99.90;;;;;;5059073;28;20244;-54
2021/12/27 04:48:25;;;;;;;48.90;25.97;;;3.30;99.90;;;;;;5069229;28;20203;-54
2021/12/27 04:50:53;;;;;;;42.70;24.30;;;3.30;99.90;;;;;;5051272;28;20235;-55
2021/12/27 04:53:21;;;;;;;44.17;26.43;;;3.30;99.90;;;;;;5062877;28;20588;-55
2021/12/27 04:55:49;;;;;;;40.80;23.83;;;3.30;99.90;;;;;;5071603;28;20310;-54
2021/12/27 04:58:21;;;;;;;39.60;22.93;;;3.30;99.90;;;;;;5071505;28;20704;-54
2021/12/27 05:00:54;;;;;;;37.80;22.30;;;3.30;99.90;;;;;;5067092;28;20569;-54
2021/12/27 05:03:22;;;;;;;36.73;22.70;;;3.30;99.90;;;;;;5071575;28;20215;-53
2021/12/27 05:05:50;;;;;;;35.63;22.37;;;3.30;99.90;;;;;;5071551;28;20252;-53
2021/12/27 05:08:19;;;;;;;37.07;21.77;;;3.30;99.90;;;;;;5071511;28;20268;-53
2021/12/27 05:10:48;;;;;;;31.53;20.17;;;3.30;99.90;;;;;;5071356;28;20266;-54
2021/12/27 05:13:17;;;;;;;32.50;18.90;;;3.30;99.90;;;;;;5070058;28;20210;-54
2021/12/27 05:15:46;;;;;;;30.70;19.10;;;3.30;99.90;;;;;;5071541;28;20608;-53
2021/12/27 05:18:17;;;;;;;28.50;19.03;;;3.30;99.90;;;;;;5071547;28;20209;-55
2021/12/27 05:20:45;;;;;;;36.07;20.47;;;3.30;99.90;;;;;;5071269;28;20642;-53
2021/12/27 05:23:14;;;;;;;57.77;23.40;;;3.30;99.90;;;;;;5071165;28;20210;-55
2021/12/27 05:25:42;;;;;;;31.07;18.13;;;3.30;99.90;;;;;;5062122;28;20253;-54
2021/12/27 05:28:10;;;;;;;34.30;19.73;;;3.20;99.90;;;;;;5071204;28;20277;-55
2021/12/27 05:30:41;;;;;;;34.80;17.90;;;3.30;99.90;;;;;;5071383;28;20205;-54
2021/12/27 05:33:09;;;;;;;45.80;20.67;;;3.30;99.90;;;;;;5069412;28;20223;-55
2021/12/27 05:35:39;;;;;;;30.13;17.37;;;3.30;99.90;;;;;;5070983;28;20254;-54
2021/12/27 05:38:07;;;;;;;36.83;19.67;;;3.30;99.90;;;;;;5054280;28;20206;-54
2021/12/27 05:40:35;;;;;;;38.10;18.63;;;3.30;99.90;;;;;;5051177;28;20239;-53
2021/12/27 05:43:06;;;;;;;48.40;19.50;;;3.30;99.90;;;;;;5070188;28;20212;-54
2021/12/27 05:45:34;;;;;;;34.00;19.30;;;3.30;99.90;;;;;;5070938;28;20220;-53
2021/12/27 05:48:02;;;;;;;38.00;20.03;;;3.30;99.90;;;;;;5071113;28;20283;-54
2021/12/27 05:50:30;;;;;;;59.80;26.33;;;3.30;99.90;;;;;;5070872;28;20474;-54
2021/12/27 05:53:01;;;;;;;85.07;33.13;;;3.30;99.90;;;;;;5065745;28;20205;-53
2021/12/27 05:55:30;;;;;;;61.77;31.27;;;3.30;99.90;;;;;;5070616;28;20229;-54
2021/12/27 05:57:58;;;;;;;95.80;33.77;;;3.30;99.90;;;;;;5075082;28;20208;-52
2021/12/27 06:00:27;;;;;;;45.87;19.77;;;3.30;99.90;;;;;;5058912;28;20244;-53
2021/12/27 06:02:56;;;;;;;48.17;26.70;;;3.30;99.90;;;;;;5055411;28;20206;-54
2021/12/27 06:05:25;;;;;;;48.00;25.57;;;3.30;99.90;;;;;;5054111;28;20286;-55
2021/12/27 06:07:53;;;;;;;47.30;28.87;;;3.30;99.90;;;;;;5071472;28;20297;-53
2021/12/27 06:10:22;;;;;;;63.97;31.10;;;3.30;99.90;;;;;;5074689;28;20208;-54
2021/12/27 06:12:51;;;;;;;57.10;31.63;;;3.30;99.90;;;;;;5074269;28;20669;-54
2021/12/27 06:15:19;;;;;;;46.07;23.40;;;3.40;99.90;;;;;;5074624;28;20693;-55
2021/12/27 06:17:47;;;;;;;59.73;37.93;;;3.40;99.90;;;;;;5074570;28;20264;-54
2021/12/27 06:20:17;;;;;;;40.67;20.93;;;3.30;99.90;;;;;;5074505;28;20210;-54
2021/12/27 06:22:47;;;;;;;56.90;29.53;;;3.30;99.90;;;;;;5074626;28;20249;-54
2021/12/27 06:25:16;;;;;;;39.67;22.57;;;3.30;99.90;;;;;;5069873;28;20362;-54
2021/12/27 06:27:45;;;;;;;60.67;33.13;;;3.30;99.90;;;;;;5070942;28;20572;-55
2021/12/27 06:30:16;;;;;;;73.10;36.27;;;3.30;99.90;;;;;;5074208;28;20793;-54
2021/12/27 06:32:46;;;;;;;40.70;25.10;;;3.20;99.90;;;;;;5070426;28;20573;-55
2021/12/27 06:35:17;;;;;;;44.10;27.13;;;3.20;99.90;;;;;;5062201;28;20244;-53
2021/12/27 06:37:46;;;;;;;45.83;27.93;;;3.20;99.90;;;;;;5070205;28;20570;-51
2021/12/27 06:40:16;;;;;;;40.53;23.20;;;3.30;99.90;;;;;;5057034;28;20248;-55
2021/12/27 06:42:46;;;;;;;48.63;24.90;;;3.30;99.90;;;;;;5072510;28;20584;-54
2021/12/27 06:45:15;;;;;;;51.83;25.90;;;3.30;99.90;;;;;;5062563;28;20249;-54
2021/12/27 06:47:43;;;;;;;55.73;23.23;;;3.30;99.90;;;;;;5059355;28;20210;-53
2021/12/27 06:50:11;;;;;;;59.93;24.17;;;3.40;99.90;;;;;;5054435;28;20248;-54
2021/12/27 06:52:39;;;;;;;44.03;20.70;;;3.40;99.90;;;;;;5058047;28;20257;-53
2021/12/27 06:55:09;;;;;;;38.80;19.73;;;3.40;99.90;;;;;;5054084;28;20343;-53
2021/12/27 06:57:37;;;;;;;45.40;19.40;;;3.40;99.90;;;;;;5053090;28;20666;-54
2021/12/27 07:00:10;;;;;;;39.67;20.93;;;3.40;99.90;;;;;;5056944;28;20255;-54
2021/12/27 07:02:39;;;;;;;45.40;20.83;;;3.30;99.90;;;;;;5057953;28;20270;-54
2021/12/27 07:05:07;;;;;;;54.07;21.27;;;3.30;99.90;;;;;;5053945;28;20642;-54
2021/12/27 07:07:36;;;;;;;41.47;17.93;;;3.40;99.90;;;;;;5059417;28;20222;-54
2021/12/27 07:10:04;;;;;;;46.70;18.73;;;3.30;99.90;;;;;;5052966;28;20746;-55
2021/12/27 07:12:32;;;;;;;49.23;20.00;;;3.30;99.90;;;;;;5052787;28;20234;-56
2021/12/27 07:15:01;;;;;;;63.53;20.87;;;3.40;99.90;;;;;;5052760;28;20272;-54
2021/12/27 07:17:30;;;;;;;50.80;18.70;;;3.40;99.90;;;;;;5054424;28;20678;-54
2021/12/27 07:19:58;;;;;;;60.23;20.50;;;3.40;99.90;;;;;;5072704;28;20262;-55
2021/12/27 07:22:26;;;;;;;49.13;19.63;;;3.40;99.90;;;;;;5073156;28;20207;-54
2021/12/27 07:24:54;;;;;;;67.47;22.03;;;3.40;99.90;;;;;;5073436;28;20221;-53
2021/12/27 07:27:23;;;;;;;60.03;23.37;;;3.40;99.90;;;;;;5070534;28;20603;-55
2021/12/27 07:29:51;;;;;;;65.30;23.43;;;3.40;99.90;;;;;;5073460;28;20259;-55
2021/12/27 07:32:19;;;;;;;48.83;19.80;;;3.40;99.90;;;;;;5073240;28;20204;-54
2021/12/27 07:34:49;;;;;;;38.47;17.40;;;3.40;99.90;;;;;;5059108;28;20223;-54
2021/12/27 07:37:17;;;;;;;51.73;18.50;;;3.40;99.90;;;;;;5063165;28;20621;-54
2021/12/27 07:39:46;;;;;;;63.00;18.33;;;3.40;99.90;;;;;;5069548;28;20233;-53
2021/12/27 07:42:14;;;;;;;69.07;18.50;;;3.40;99.90;;;;;;5052561;28;20221;-55
2021/12/27 07:44:42;;;;;;;80.47;21.23;;;3.50;99.90;;;;;;5058654;28;20917;-54
2021/12/27 07:47:10;;;;;;;69.57;21.80;;;3.50;99.90;;;;;;5073230;28;20265;-55
2021/12/27 07:49:39;;;;;;;77.97;20.30;;;3.50;99.90;;;;;;5073153;28;20662;-56
2021/12/27 07:52:09;;;;;;;48.77;19.67;;;3.50;99.90;;;;;;5072998;28;20601;-54
2021/12/27 07:54:37;;;;;;;58.53;21.63;;;3.50;99.90;;;;;;5062831;28;20774;-55
2021/12/27 07:57:06;;;;;;;94.07;22.63;;;3.50;99.90;;;;;;5052320;28;20851;-53
2021/12/27 07:59:34;;;;;;;96.40;20.53;;;3.50;99.90;;;;;;5056035;28;20300;-55
2021/12/27 08:02:02;;;;;;;87.47;21.37;;;3.50;99.90;;;;;;5065499;28;20239;-53
2021/12/27 08:04:30;;;;;;;86.70;20.77;;;3.50;99.90;;;;;;5062582;28;20745;-54
2021/12/27 08:06:59;;;;;;;82.53;20.47;;;3.50;99.90;;;;;;5063707;28;20208;-57
2021/12/27 08:09:28;;;;;;;107.20;21.53;;;3.50;99.90;;;;;;5062773;28;20255;-54
2021/12/27 08:11:56;;;;;;;108.47;21.67;;;3.60;99.90;;;;;;5063702;28;20208;-55
2021/12/27 08:14:24;;;;;;;69.93;20.03;;;3.50;99.90;;;;;;5071536;28;20221;-54
2021/12/27 08:16:53;;;;;;;89.33;19.40;;;3.50;99.90;;;;;;5071712;28;20257;-56
2021/12/27 08:19:21;;;;;;;94.57;20.30;;;3.60;99.90;;;;;;5058957;28;20259;-54
2021/12/27 08:21:49;;;;;;;97.43;21.00;;;3.60;99.90;;;;;;5068821;28;20252;-55
2021/12/27 08:24:17;;;;;;;73.13;21.30;;;3.60;99.90;;;;;;5070815;28;20751;-54
2021/12/27 08:26:47;;;;;;;81.07;32.30;;;3.50;99.90;;;;;;5070944;28;20267;-56
2021/12/27 08:29:15;;;;;;;90.30;22.33;;;3.50;99.90;;;;;;5071856;28;20209;-54
2021/12/27 08:31:44;;;;;;;63.90;21.03;;;3.50;99.90;;;;;;5068705;28;20212;-54
2021/12/27 08:34:12;;;;;;;77.67;21.67;;;3.60;99.90;;;;;;5072018;28;20677;-55
2021/12/27 08:36:40;;;;;;;81.43;21.73;;;3.60;99.90;;;;;;5067717;28;20282;-54
2021/12/27 08:39:08;;;;;;;76.77;22.77;;;3.60;99.90;;;;;;5065938;28;20342;-55
2021/12/27 08:41:37;;;;;;;105.50;25.47;;;3.60;99.90;;;;;;5066698;28;20203;-54
2021/12/27 08:44:06;;;;;;;90.53;24.70;;;3.60;99.90;;;;;;5070288;28;20212;-54
2021/12/27 08:46:35;;;;;;;105.60;22.60;;;3.60;99.90;;;;;;5055083;28;20259;-54
2021/12/27 08:49:04;;;;;;;92.97;24.93;;;3.60;99.90;;;;;;5071780;28;20208;-55
2021/12/27 08:51:33;;;;;;;73.13;22.20;;;3.60;99.90;;;;;;5071233;28;20262;-55
2021/12/27 08:54:01;;;;;;;104.47;21.10;;;3.70;99.90;;;;;;5071889;28;20200;-54
2021/12/27 08:56:29;;;;;;;87.90;21.30;;;3.70;99.90;;;;;;5070281;28;20228;-53
2021/12/27 08:58:57;;;;;;;50.53;20.13;;;3.80;99.90;;;;;;5069295;28;20247;-54
2021/12/27 09:01:27;;;;;;;161.93;25.17;;;3.80;99.90;;;;;;5069731;28;20205;-54
2021/12/27 09:03:56;;;;;;;62.67;19.40;;;3.80;99.90;;;;;;5069828;28;20202;-54
2021/12/27 09:06:24;;;;;;;110.67;21.20;;;3.80;99.90;;;;;;5069355;28;20234;-53
2021/12/27 09:08:52;;;;;;;86.87;19.47;;;3.80;99.90;;;;;;5069797;28;20303;-54
2021/12/27 09:11:20;;;;;;;124.63;23.07;;;3.80;99.90;;;;;;5069616;28;20232;-55
2021/12/27 09:13:48;;;;;;;129.43;21.50;;;3.80;99.90;;;;;;5071332;28;20258;-54
2021/12/27 09:16:38;;;;;;;112.80;18.90;;;3.90;99.90;;;;;;5071448;28;20235;-54
2021/12/27 09:19:06;;;;;;;81.53;17.93;;;3.90;99.90;;;;;;5069380;28;20209;-53
2021/12/27 09:21:34;;;;;;;64.70;17.20;;;3.90;99.90;;;;;;5071141;28;20201;-55
2021/12/27 09:24:03;;;;;;;104.17;20.23;;;3.90;99.90;;;;;;5071405;28;20205;-54
2021/12/27 09:26:31;;;;;;;67.30;16.70;;;3.90;99.90;;;;;;5070225;28;20259;-55
2021/12/27 09:28:59;;;;;;;89.63;23.27;;;3.90;99.90;;;;;;5051380;28;20267;-54
2021/12/27 09:31:27;;;;;;;102.67;21.97;;;3.90;99.90;;;;;;5050619;28;20210;-53
2021/12/27 09:33:57;;;;;;;95.30;25.37;;;3.90;99.90;;;;;;5051495;28;20239;-55
2021/12/27 09:36:25;;;;;;;73.50;24.73;;;3.90;99.90;;;;;;5053246;28;20265;-54
2021/12/27 09:38:53;;;;;;;85.40;24.30;;;3.80;99.90;;;;;;5071687;28;20263;-53
2021/12/27 09:41:24;;;;;;;143.30;29.20;;;3.80;99.90;;;;;;5058762;28;20242;-55
2021/12/27 09:43:52;;;;;;;102.33;26.93;;;3.90;99.90;;;;;;5051344;28;20206;-56
2021/12/27 09:46:21;;;;;;;68.87;24.70;;;3.90;99.90;;;;;;5069611;28;20217;-56
2021/12/27 09:48:53;;;;;;;64.10;19.90;;;3.90;99.90;;;;;;5070835;28;20255;-54
2021/12/27 09:51:23;;;;;;;115.73;21.70;;;3.90;99.90;;;;;;5070566;28;20669;-54
2021/12/27 09:53:52;;;;;;;120.53;23.97;;;4.00;99.90;;;;;;5070326;28;20235;-55
2021/12/27 09:56:20;;;;;;;97.93;24.90;;;4.00;99.90;;;;;;5057500;28;20233;-59
2021/12/27 09:58:49;;;;;;;76.03;21.83;;;4.10;99.90;;;;;;5050927;28;20208;-55
2021/12/27 10:01:17;;;;;;;91.87;20.10;;;4.10;99.90;;;;;;5071204;28;20252;-54
2021/12/27 10:03:49;;;;;;;158.47;70.37;;;4.10;99.90;;;;;;5070683;28;20294;-54
2021/12/27 10:06:19;;;;;;;56.30;21.70;;;4.10;99.90;;;;;;5070666;28;20268;-51
2021/12/27 10:08:51;;;;;;;183.47;62.03;;;4.10;99.90;;;;;;5055996;28;20240;-53
2021/12/27 10:11:22;;;;;;;48.40;16.80;;;4.10;99.90;;;;;;5064849;28;20209;-55
2021/12/27 10:14:04;;;;;;;73.93;25.17;;;4.00;99.90;;;;;;5070305;28;20206;-54
2021/12/27 10:16:34;;;;;;;46.57;16.60;;;4.10;99.90;;;;;;5052756;28;20665;-56
2021/12/27 10:19:05;;;;;;;95.07;22.10;;;4.10;99.90;;;;;;5062583;28;20266;-54
2021/12/27 10:21:34;;;;;;;61.47;22.20;;;4.20;99.90;;;;;;5070732;28;20237;-54
2021/12/27 10:24:10;;;;;;;106.97;33.03;;;4.20;99.90;;;;;;5063815;28;20205;-54
2021/12/27 10:26:39;;;;;;;119.93;29.87;;;4.20;99.90;;;;;;5050330;28;20209;-53
2021/12/27 10:29:12;;;;;;;121.20;25.10;;;4.20;99.90;;;;;;5066968;28;20875;-52
2021/12/27 10:32:09;;;;;;;95.33;22.23;;;4.30;99.90;;;;;;5050557;28;20238;-55
2021/12/27 10:34:39;;;;;;;53.93;17.33;;;4.30;99.90;;;;;;5015097;28;20222;-54
2021/12/27 10:37:15;;;;;;;87.60;20.20;;;4.30;99.90;;;;;;5058350;28;20245;-55
2021/12/27 10:39:54;;;;;;;85.47;18.60;;;4.30;99.90;;;;;;5070465;28;20730;-53
2021/12/27 10:42:25;;;;;;;139.53;21.93;;;4.30;99.90;;;;;;5051061;28;20578;-54
2021/12/27 10:44:56;;;;;;;83.53;20.43;;;4.40;99.90;;;;;;5061653;28;20317;-53
2021/12/27 10:47:31;;;;;;;75.43;21.50;;;4.30;99.90;;;;;;5075476;28;20191;-55
2021/12/27 10:50:05;;;;;;;101.63;22.10;;;4.40;99.90;;;;;;5074585;28;20227;-53
2021/12/27 10:52:55;;;;;;;69.53;19.00;;;4.40;99.90;;;;;;5061396;28;20201;-54
2021/12/27 10:55:27;;;;;;;87.23;16.40;;;4.40;99.90;;;;;;5061605;28;20222;-53
2021/12/27 10:58:11;;;;;;;74.87;17.10;;;4.40;99.90;;;;;;5053347;28;20265;-52
2021/12/27 11:00:40;;;;;;;70.30;16.50;;;4.40;99.90;;;;;;5054810;28;20207;-53
2021/12/27 11:03:23;;;;;;;79.60;16.63;;;4.40;99.90;;;;;;5055871;28;20217;-56
2021/12/27 11:05:51;;;;;;;85.93;16.63;;;4.50;99.90;;;;;;5053658;28;20649;-54
2021/12/27 11:08:19;;;;;;;102.57;16.53;;;4.50;99.90;;;;;;5053654;28;20255;-53
2021/12/27 11:10:49;;;;;;;141.97;20.60;;;4.50;99.90;;;;;;5057956;28;20213;-54
2021/12/27 11:13:17;;;;;;;132.47;20.67;;;4.60;99.90;;;;;;5055553;28;20260;-54
2021/12/27 11:15:45;;;;;;;110.63;19.93;;;4.60;99.90;;;;;;5067777;28;20274;-54
2021/12/27 11:18:15;;;;;;;70.43;16.73;;;4.60;99.90;;;;;;5052268;28;20223;-54
2021/12/27 11:20:46;;;;;;;133.87;19.37;;;4.70;99.90;;;;;;5053001;28;20202;-55
2021/12/27 11:23:15;;;;;;;132.93;19.33;;;4.70;99.90;;;;;;5065192;28;20204;-54
2021/12/27 11:25:45;;;;;;;109.77;20.00;;;4.70;99.90;;;;;;5054672;28;20223;-55
2021/12/27 11:28:29;;;;;;;115.40;20.17;;;4.70;99.90;;;;;;5057608;28;20258;-55
2021/12/27 11:31:06;;;;;;;90.53;23.90;;;4.60;99.90;;;;;;5052290;28;20209;-55
2021/12/27 11:33:53;;;;;;;91.60;18.30;;;4.60;99.90;;;;;;5059493;28;20201;-54
2021/12/27 11:36:22;;;;;;;90.80;15.30;;;4.60;99.90;;;;;;5072359;28;20254;-56
2021/12/27 11:38:51;;;;;;;77.60;17.93;;;4.60;99.90;;;;;;5058011;28;20309;-54
2021/12/27 11:41:34;;;;;;;145.80;20.37;;;4.50;99.90;;;;;;5053065;28;20799;-53
2021/12/27 11:44:06;;;;;;;97.70;16.73;;;4.60;99.90;;;;;;5052962;28;20738;-54
2021/12/27 11:46:58;;;;;;;124.53;19.70;;;4.60;99.90;;;;;;5071053;28;20239;-56
2021/12/27 11:49:45;;;;;;;126.33;20.23;;;4.60;99.90;;;;;;5056481;28;20304;-54
2021/12/27 11:52:17;;;;;;;140.87;21.47;;;4.60;99.90;;;;;;5069379;28;20219;-55
2021/12/27 11:54:51;;;;;;;74.73;16.57;;;4.70;99.90;;;;;;5072470;28;20226;-54
2021/12/27 11:57:49;;;;;;;75.20;16.30;;;4.60;99.90;;;;;;5071047;28;20248;-54
2021/12/27 12:00:39;;;;;;;84.13;15.70;;;4.60;99.90;;;;;;5051364;28;20257;-56
2021/12/27 12:03:20;;;;;;;129.13;21.27;;;4.70;99.90;;;;;;5050965;28;20193;-53
2021/12/27 12:05:50;;;;;;;121.63;20.60;;;4.70;99.90;;;;;;5050353;28;20310;-55
2021/12/27 12:08:19;;;;;;;130.07;20.07;;;4.70;99.90;;;;;;5065165;28;20233;-55
2021/12/27 12:10:52;;;;;;;139.43;21.67;;;4.70;99.90;;;;;;5070908;28;20698;-55
2021/12/27 12:13:26;;;;;;;57.60;17.97;;;4.70;99.90;;;;;;5070780;28;20639;-54
2021/12/27 12:16:08;;;;;;;65.37;16.77;;;4.80;99.90;;;;;;5072178;28;20286;-55
2021/12/27 12:18:39;;;;;;;76.57;15.17;;;4.80;99.90;;;;;;5071957;28;20773;-53
2021/12/27 12:21:28;;;;;;;49.60;14.53;;;4.80;99.90;;;;;;5071781;28;20209;-54
2021/12/27 12:23:57;;;;;;;95.53;15.67;;;4.70;99.90;;;;;;5072339;28;20201;-54
2021/12/27 12:26:26;;;;;;;76.20;14.47;;;4.70;99.90;;;;;;5069295;28;20215;-55
2021/12/27 12:29:01;;;;;;;107.67;18.40;;;4.70;99.90;;;;;;5064695;28;20767;-55
2021/12/27 12:31:32;;;;;;;125.60;17.80;;;4.70;99.90;;;;;;5050090;28;20216;-55
2021/12/27 12:34:09;;;;;;;64.63;16.83;;;4.70;99.90;;;;;;5052427;28;20213;-55
2021/12/27 12:36:50;;;;;;;74.20;17.10;;;4.70;99.90;;;;;;5056500;28;20204;-55
2021/12/27 12:39:19;;;;;;;82.57;16.17;;;4.70;99.90;;;;;;5068376;28;20237;-52
2021/12/27 12:41:48;;;;;;;114.73;21.33;;;4.80;99.90;;;;;;5071497;28;20205;-55
2021/12/27 12:44:17;;;;;;;91.87;22.33;;;4.80;99.90;;;;;;5071537;28;20197;-53
2021/12/27 12:46:50;;;;;;;88.83;16.83;;;4.80;99.90;;;;;;5071878;28;20212;-54
2021/12/27 12:49:20;;;;;;;61.10;13.83;;;4.70;99.90;;;;;;5069254;28;20209;-55
2021/12/27 12:51:50;;;;;;;109.17;15.43;;;4.70;99.90;;;;;;5071340;28;20205;-55